sensor_id;sensor_type;location;lat;lon;timestamp;P1;durP1;ratioP1;P2;durP2;ratioP2
70796;SDS011;63842;52.144;5.360;2023-03-26T00:01:00;12.27;;;2.40;;
70796;SDS011;63842;52.144;5.360;2023-03-26T00:03:32;11.52;;;2.42;;
70796;SDS011;63842;52.144;5.360;2023-03-26T00:06:00;12.40;;;2.75;;
70796;SDS011;63842;52.144;5.360;2023-03-26T00:08:28;13.60;;;2.67;;
70796;SDS011;63842;52.144;5.360;2023-03-26T00:10:56;12.65;;;2.65;;
70796;SDS011;63842;52.144;5.360;2023-03-26T00:13:26;13.82;;;2.45;;
70796;SDS011;63842;52.144;5.360;2023-03-26T00:15:53;8.93;;;2.85;;
70796;SDS011;63842;52.144;5.360;2023-03-26T00:18:21;11.65;;;2.70;;
70796;SDS011;63842;52.144;5.360;2023-03-26T00:20:50;9.10;;;2.15;;
70796;SDS011;63842;52.144;5.360;2023-03-26T00:23:17;11.55;;;2.30;;
70796;SDS011;63842;52.144;5.360;2023-03-26T00:25:44;16.17;;;2.60;;
70796;SDS011;63842;52.144;5.360;2023-03-26T00:28:16;10.23;;;2.92;;
70796;SDS011;63842;52.144;5.360;2023-03-26T00:30:47;11.07;;;2.78;;
70796;SDS011;63842;52.144;5.360;2023-03-26T00:33:14;9.90;;;2.30;;
70796;SDS011;63842;52.144;5.360;2023-03-26T00:35:45;7.78;;;2.30;;
70796;SDS011;63842;52.144;5.360;2023-03-26T00:38:13;11.82;;;2.88;;
70796;SDS011;63842;52.144;5.360;2023-03-26T00:40:40;12.40;;;2.72;;
70796;SDS011;63842;52.144;5.360;2023-03-26T00:43:13;13.93;;;2.90;;
70796;SDS011;63842;52.144;5.360;2023-03-26T00:45:45;13.57;;;2.95;;
70796;SDS011;63842;52.144;5.360;2023-03-26T00:48:13;11.32;;;2.42;;
70796;SDS011;63842;52.144;5.360;2023-03-26T00:50:41;12.48;;;2.63;;
70796;SDS011;63842;52.144;5.360;2023-03-26T00:53:09;11.45;;;2.15;;
70796;SDS011;63842;52.144;5.360;2023-03-26T00:55:39;11.20;;;2.80;;
70796;SDS011;63842;52.144;5.360;2023-03-26T00:58:07;10.13;;;2.40;;
70796;SDS011;63842;52.144;5.360;2023-03-26T01:00:49;11.98;;;2.25;;
70796;SDS011;63842;52.144;5.360;2023-03-26T01:03:17;12.07;;;2.55;;
70796;SDS011;63842;52.144;5.360;2023-03-26T01:05:57;11.10;;;2.72;;
70796;SDS011;63842;52.144;5.360;2023-03-26T01:10:56;12.43;;;2.55;;
70796;SDS011;63842;52.144;5.360;2023-03-26T01:13:38;13.07;;;2.78;;
70796;SDS011;63842;52.144;5.360;2023-03-26T01:16:09;11.77;;;2.30;;
70796;SDS011;63842;52.144;5.360;2023-03-26T01:18:46;14.88;;;2.67;;
70796;SDS011;63842;52.144;5.360;2023-03-26T01:21:16;14.93;;;3.15;;
70796;SDS011;63842;52.144;5.360;2023-03-26T01:23:55;14.88;;;2.63;;
70796;SDS011;63842;52.144;5.360;2023-03-26T01:28:57;13.40;;;2.60;;
70796;SDS011;63842;52.144;5.360;2023-03-26T01:31:38;18.35;;;2.40;;
70796;SDS011;63842;52.144;5.360;2023-03-26T01:34:21;17.25;;;3.05;;
70796;SDS011;63842;52.144;5.360;2023-03-26T01:37:03;14.73;;;2.92;;
70796;SDS011;63842;52.144;5.360;2023-03-26T01:39:38;13.20;;;2.60;;
70796;SDS011;63842;52.144;5.360;2023-03-26T01:42:14;16.27;;;2.95;;
70796;SDS011;63842;52.144;5.360;2023-03-26T01:44:44;11.95;;;2.50;;
70796;SDS011;63842;52.144;5.360;2023-03-26T01:47:14;14.50;;;2.88;;
70796;SDS011;63842;52.144;5.360;2023-03-26T01:49:42;14.27;;;3.00;;
70796;SDS011;63842;52.144;5.360;2023-03-26T01:52:11;13.98;;;2.95;;
70796;SDS011;63842;52.144;5.360;2023-03-26T01:54:39;16.95;;;2.88;;
70796;SDS011;63842;52.144;5.360;2023-03-26T01:57:28;16.17;;;3.35;;
70796;SDS011;63842;52.144;5.360;2023-03-26T02:00:17;13.45;;;2.35;;
70796;SDS011;63842;52.144;5.360;2023-03-26T02:10:43;13.32;;;2.58;;
70796;SDS011;63842;52.144;5.360;2023-03-26T02:15:39;10.60;;;2.58;;
70796;SDS011;63842;52.144;5.360;2023-03-26T02:18:06;13.20;;;2.90;;
70796;SDS011;63842;52.144;5.360;2023-03-26T02:20:36;11.73;;;2.67;;
70796;SDS011;63842;52.144;5.360;2023-03-26T02:23:03;18.85;;;2.83;;
70796;SDS011;63842;52.144;5.360;2023-03-26T02:25:32;15.88;;;3.00;;
70796;SDS011;63842;52.144;5.360;2023-03-26T02:28:01;17.05;;;2.70;;
70796;SDS011;63842;52.144;5.360;2023-03-26T02:30:29;18.00;;;3.10;;
70796;SDS011;63842;52.144;5.360;2023-03-26T02:32:59;14.95;;;2.95;;
70796;SDS011;63842;52.144;5.360;2023-03-26T02:35:37;15.63;;;2.75;;
70796;SDS011;63842;52.144;5.360;2023-03-26T02:38:05;13.68;;;2.95;;
70796;SDS011;63842;52.144;5.360;2023-03-26T02:40:35;19.10;;;3.25;;
70796;SDS011;63842;52.144;5.360;2023-03-26T02:43:02;21.98;;;3.15;;
70796;SDS011;63842;52.144;5.360;2023-03-26T02:45:31;16.05;;;2.65;;
70796;SDS011;63842;52.144;5.360;2023-03-26T02:48:01;13.23;;;2.45;;
70796;SDS011;63842;52.144;5.360;2023-03-26T02:50:51;19.63;;;3.95;;
70796;SDS011;63842;52.144;5.360;2023-03-26T02:53:37;18.75;;;3.50;;
70796;SDS011;63842;52.144;5.360;2023-03-26T02:56:33;20.00;;;3.38;;
70796;SDS011;63842;52.144;5.360;2023-03-26T02:59:19;20.85;;;3.60;;
70796;SDS011;63842;52.144;5.360;2023-03-26T03:01:56;16.13;;;2.85;;
70796;SDS011;63842;52.144;5.360;2023-03-26T03:04:24;21.63;;;3.70;;
70796;SDS011;63842;52.144;5.360;2023-03-26T03:06:52;19.52;;;3.22;;
70796;SDS011;63842;52.144;5.360;2023-03-26T03:09:24;22.85;;;3.92;;
70796;SDS011;63842;52.144;5.360;2023-03-26T03:12:17;17.80;;;3.50;;
70796;SDS011;63842;52.144;5.360;2023-03-26T03:14:44;19.60;;;3.38;;
70796;SDS011;63842;52.144;5.360;2023-03-26T03:17:12;17.95;;;3.20;;
70796;SDS011;63842;52.144;5.360;2023-03-26T03:19:39;21.67;;;4.05;;
70796;SDS011;63842;52.144;5.360;2023-03-26T03:22:06;21.45;;;3.67;;
70796;SDS011;63842;52.144;5.360;2023-03-26T03:24:34;20.38;;;3.40;;
70796;SDS011;63842;52.144;5.360;2023-03-26T03:27:04;21.00;;;3.15;;
70796;SDS011;63842;52.144;5.360;2023-03-26T03:29:33;27.33;;;4.15;;
70796;SDS011;63842;52.144;5.360;2023-03-26T03:32:24;20.58;;;3.67;;
70796;SDS011;63842;52.144;5.360;2023-03-26T03:34:54;20.13;;;3.97;;
70796;SDS011;63842;52.144;5.360;2023-03-26T03:37:22;28.05;;;5.10;;
70796;SDS011;63842;52.144;5.360;2023-03-26T03:39:52;23.30;;;4.28;;
70796;SDS011;63842;52.144;5.360;2023-03-26T03:42:22;25.52;;;5.20;;
70796;SDS011;63842;52.144;5.360;2023-03-26T03:44:52;28.70;;;4.80;;
70796;SDS011;63842;52.144;5.360;2023-03-26T03:47:38;23.58;;;4.35;;
70796;SDS011;63842;52.144;5.360;2023-03-26T03:50:06;18.95;;;4.25;;
70796;SDS011;63842;52.144;5.360;2023-03-26T03:52:35;23.77;;;4.35;;
70796;SDS011;63842;52.144;5.360;2023-03-26T03:55:03;27.73;;;4.55;;
70796;SDS011;63842;52.144;5.360;2023-03-26T03:57:51;20.85;;;4.72;;
70796;SDS011;63842;52.144;5.360;2023-03-26T04:00:21;24.95;;;5.15;;
70796;SDS011;63842;52.144;5.360;2023-03-26T04:03:09;23.55;;;5.15;;
70796;SDS011;63842;52.144;5.360;2023-03-26T04:05:40;27.23;;;5.20;;
70796;SDS011;63842;52.144;5.360;2023-03-26T04:08:09;24.58;;;5.15;;
70796;SDS011;63842;52.144;5.360;2023-03-26T04:10:45;24.95;;;4.65;;
70796;SDS011;63842;52.144;5.360;2023-03-26T04:13:39;20.70;;;4.43;;
70796;SDS011;63842;52.144;5.360;2023-03-26T04:16:17;24.08;;;4.60;;
70796;SDS011;63842;52.144;5.360;2023-03-26T04:18:47;22.48;;;5.60;;
70796;SDS011;63842;52.144;5.360;2023-03-26T04:21:14;29.63;;;5.57;;
70796;SDS011;63842;52.144;5.360;2023-03-26T04:23:43;21.65;;;5.15;;
70796;SDS011;63842;52.144;5.360;2023-03-26T04:26:43;26.25;;;4.95;;
70796;SDS011;63842;52.144;5.360;2023-03-26T04:29:15;22.40;;;4.40;;
70796;SDS011;63842;52.144;5.360;2023-03-26T04:31:44;23.23;;;4.57;;
70796;SDS011;63842;52.144;5.360;2023-03-26T04:34:23;23.20;;;5.30;;
70796;SDS011;63842;52.144;5.360;2023-03-26T04:37:02;21.90;;;4.75;;
70796;SDS011;63842;52.144;5.360;2023-03-26T04:39:36;18.45;;;4.47;;
70796;SDS011;63842;52.144;5.360;2023-03-26T04:42:23;21.48;;;5.53;;
70796;SDS011;63842;52.144;5.360;2023-03-26T04:45:03;19.90;;;5.10;;
70796;SDS011;63842;52.144;5.360;2023-03-26T04:47:31;22.15;;;5.43;;
70796;SDS011;63842;52.144;5.360;2023-03-26T04:50:03;21.42;;;5.03;;
70796;SDS011;63842;52.144;5.360;2023-03-26T04:52:31;15.15;;;5.00;;
70796;SDS011;63842;52.144;5.360;2023-03-26T04:55:20;29.40;;;6.18;;
70796;SDS011;63842;52.144;5.360;2023-03-26T04:57:58;22.45;;;5.03;;
70796;SDS011;63842;52.144;5.360;2023-03-26T05:00:48;19.90;;;5.45;;
70796;SDS011;63842;52.144;5.360;2023-03-26T05:03:16;23.42;;;5.40;;
70796;SDS011;63842;52.144;5.360;2023-03-26T05:05:47;19.75;;;4.75;;
70796;SDS011;63842;52.144;5.360;2023-03-26T05:08:15;24.85;;;5.93;;
70796;SDS011;63842;52.144;5.360;2023-03-26T05:10:42;23.60;;;5.55;;
70796;SDS011;63842;52.144;5.360;2023-03-26T05:13:22;23.13;;;5.60;;
70796;SDS011;63842;52.144;5.360;2023-03-26T05:15:53;27.70;;;5.45;;
70796;SDS011;63842;52.144;5.360;2023-03-26T05:18:44;21.42;;;5.13;;
70796;SDS011;63842;52.144;5.360;2023-03-26T05:21:13;21.67;;;5.82;;
70796;SDS011;63842;52.144;5.360;2023-03-26T05:23:40;23.25;;;5.18;;
70796;SDS011;63842;52.144;5.360;2023-03-26T05:26:19;26.73;;;5.22;;
70796;SDS011;63842;52.144;5.360;2023-03-26T05:28:47;21.10;;;5.60;;
70796;SDS011;63842;52.144;5.360;2023-03-26T05:31:21;23.30;;;5.13;;
70796;SDS011;63842;52.144;5.360;2023-03-26T05:33:51;20.80;;;5.72;;
70796;SDS011;63842;52.144;5.360;2023-03-26T05:36:20;26.80;;;5.75;;
70796;SDS011;63842;52.144;5.360;2023-03-26T05:38:58;23.02;;;5.53;;
70796;SDS011;63842;52.144;5.360;2023-03-26T05:41:45;23.42;;;6.28;;
70796;SDS011;63842;52.144;5.360;2023-03-26T05:44:13;22.40;;;5.72;;
70796;SDS011;63842;52.144;5.360;2023-03-26T05:46:40;25.50;;;5.60;;
70796;SDS011;63842;52.144;5.360;2023-03-26T05:49:11;24.75;;;5.88;;
70796;SDS011;63842;52.144;5.360;2023-03-26T05:51:38;22.20;;;5.38;;
70796;SDS011;63842;52.144;5.360;2023-03-26T05:54:32;22.70;;;5.88;;
70796;SDS011;63842;52.144;5.360;2023-03-26T05:57:18;28.67;;;6.18;;
70796;SDS011;63842;52.144;5.360;2023-03-26T06:00:07;23.13;;;5.88;;
70796;SDS011;63842;52.144;5.360;2023-03-26T06:02:42;20.95;;;5.93;;
70796;SDS011;63842;52.144;5.360;2023-03-26T06:05:47;25.80;;;6.65;;
70796;SDS011;63842;52.144;5.360;2023-03-26T06:08:18;27.27;;;6.30;;
70796;SDS011;63842;52.144;5.360;2023-03-26T06:10:50;21.73;;;6.40;;
70796;SDS011;63842;52.144;5.360;2023-03-26T06:13:23;19.42;;;5.88;;
70796;SDS011;63842;52.144;5.360;2023-03-26T06:15:51;23.75;;;6.40;;
70796;SDS011;63842;52.144;5.360;2023-03-26T06:18:25;24.52;;;6.07;;
70796;SDS011;63842;52.144;5.360;2023-03-26T06:21:11;23.58;;;5.57;;
70796;SDS011;63842;52.144;5.360;2023-03-26T06:23:49;29.33;;;6.65;;
70796;SDS011;63842;52.144;5.360;2023-03-26T06:26:39;23.48;;;6.03;;
70796;SDS011;63842;52.144;5.360;2023-03-26T06:29:21;27.95;;;6.72;;
70796;SDS011;63842;52.144;5.360;2023-03-26T06:31:51;22.95;;;6.28;;
70796;SDS011;63842;52.144;5.360;2023-03-26T06:34:24;30.45;;;6.18;;
70796;SDS011;63842;52.144;5.360;2023-03-26T06:36:52;27.27;;;6.15;;
70796;SDS011;63842;52.144;5.360;2023-03-26T06:39:20;23.75;;;6.78;;
70796;SDS011;63842;52.144;5.360;2023-03-26T06:42:08;21.48;;;5.75;;
70796;SDS011;63842;52.144;5.360;2023-03-26T06:44:58;25.33;;;6.50;;
70796;SDS011;63842;52.144;5.360;2023-03-26T06:47:44;23.45;;;6.88;;
70796;SDS011;63842;52.144;5.360;2023-03-26T06:50:28;23.83;;;6.72;;
70796;SDS011;63842;52.144;5.360;2023-03-26T06:53:19;26.02;;;6.78;;
70796;SDS011;63842;52.144;5.360;2023-03-26T06:56:07;24.38;;;6.28;;
70796;SDS011;63842;52.144;5.360;2023-03-26T06:58:54;25.58;;;6.72;;
70796;SDS011;63842;52.144;5.360;2023-03-26T07:01:40;25.13;;;6.10;;
70796;SDS011;63842;52.144;5.360;2023-03-26T07:04:26;26.42;;;6.75;;
70796;SDS011;63842;52.144;5.360;2023-03-26T07:07:11;27.40;;;6.88;;
70796;SDS011;63842;52.144;5.360;2023-03-26T07:09:58;25.10;;;6.88;;
70796;SDS011;63842;52.144;5.360;2023-03-26T07:12:43;26.27;;;6.57;;
70796;SDS011;63842;52.144;5.360;2023-03-26T07:15:34;23.75;;;6.18;;
70796;SDS011;63842;52.144;5.360;2023-03-26T07:18:01;25.13;;;6.68;;
70796;SDS011;63842;52.144;5.360;2023-03-26T07:20:31;27.42;;;6.78;;
70796;SDS011;63842;52.144;5.360;2023-03-26T07:22:59;31.00;;;6.88;;
70796;SDS011;63842;52.144;5.360;2023-03-26T07:25:50;26.23;;;6.80;;
70796;SDS011;63842;52.144;5.360;2023-03-26T07:28:40;25.02;;;6.45;;
70796;SDS011;63842;52.144;5.360;2023-03-26T07:40:37;27.23;;;6.80;;
70796;SDS011;63842;52.144;5.360;2023-03-26T07:43:43;27.70;;;6.60;;
70796;SDS011;63842;52.144;5.360;2023-03-26T07:46:32;26.58;;;6.82;;
70796;SDS011;63842;52.144;5.360;2023-03-26T07:49:25;29.75;;;7.78;;
70796;SDS011;63842;52.144;5.360;2023-03-26T07:52:04;26.05;;;7.20;;
70796;SDS011;63842;52.144;5.360;2023-03-26T07:54:50;29.13;;;8.20;;
70796;SDS011;63842;52.144;5.360;2023-03-26T08:00:28;34.28;;;9.07;;
70796;SDS011;63842;52.144;5.360;2023-03-26T08:06:07;29.48;;;8.15;;
70796;SDS011;63842;52.144;5.360;2023-03-26T08:08:47;26.38;;;7.30;;
70796;SDS011;63842;52.144;5.360;2023-03-26T08:11:39;26.60;;;7.55;;
70796;SDS011;63842;52.144;5.360;2023-03-26T08:14:19;27.10;;;8.02;;
70796;SDS011;63842;52.144;5.360;2023-03-26T08:17:10;28.67;;;7.70;;
70796;SDS011;63842;52.144;5.360;2023-03-26T08:19:58;30.15;;;7.45;;
70796;SDS011;63842;52.144;5.360;2023-03-26T08:22:29;28.10;;;7.45;;
70796;SDS011;63842;52.144;5.360;2023-03-26T08:30:27;29.17;;;7.68;;
70796;SDS011;63842;52.144;5.360;2023-03-26T08:32:57;28.83;;;7.57;;
70796;SDS011;63842;52.144;5.360;2023-03-26T08:35:26;30.30;;;8.02;;
70796;SDS011;63842;52.144;5.360;2023-03-26T08:37:53;24.67;;;7.82;;
70796;SDS011;63842;52.144;5.360;2023-03-26T08:48:09;26.17;;;7.30;;
70796;SDS011;63842;52.144;5.360;2023-03-26T09:00:52;28.52;;;8.32;;
70796;SDS011;63842;52.144;5.360;2023-03-26T09:06:11;27.38;;;8.65;;
70796;SDS011;63842;52.144;5.360;2023-03-26T09:08:56;28.70;;;9.00;;
70796;SDS011;63842;52.144;5.360;2023-03-26T09:11:40;25.42;;;9.15;;
70796;SDS011;63842;52.144;5.360;2023-03-26T09:14:20;23.73;;;8.57;;
70796;SDS011;63842;52.144;5.360;2023-03-26T09:19:46;24.55;;;8.52;;
70796;SDS011;63842;52.144;5.360;2023-03-26T09:37:57;17.80;;;7.57;;
70796;SDS011;63842;52.144;5.360;2023-03-26T09:46:02;23.60;;;7.70;;
70796;SDS011;63842;52.144;5.360;2023-03-26T09:59:09;25.25;;;7.97;;
70796;SDS011;63842;52.144;5.360;2023-03-26T10:12:24;18.65;;;6.45;;
70796;SDS011;63842;52.144;5.360;2023-03-26T10:14:57;18.05;;;6.15;;
70796;SDS011;63842;52.144;5.360;2023-03-26T10:27:53;18.48;;;5.60;;
70796;SDS011;63842;52.144;5.360;2023-03-26T10:30:43;17.83;;;5.00;;
70796;SDS011;63842;52.144;5.360;2023-03-26T10:53:50;16.60;;;3.40;;
70796;SDS011;63842;52.144;5.360;2023-03-26T10:56:25;11.73;;;3.20;;
70796;SDS011;63842;52.144;5.360;2023-03-26T10:58:53;17.65;;;4.28;;
70796;SDS011;63842;52.144;5.360;2023-03-26T11:03:55;14.77;;;3.88;;
70796;SDS011;63842;52.144;5.360;2023-03-26T11:09:00;12.88;;;3.30;;
70796;SDS011;63842;52.144;5.360;2023-03-26T11:14:04;11.15;;;3.08;;
70796;SDS011;63842;52.144;5.360;2023-03-26T11:16:42;17.63;;;2.80;;
70796;SDS011;63842;52.144;5.360;2023-03-26T11:29:27;14.05;;;3.30;;
70796;SDS011;63842;52.144;5.360;2023-03-26T11:32:10;13.90;;;3.53;;
70796;SDS011;63842;52.144;5.360;2023-03-26T11:34:43;15.88;;;3.42;;
70796;SDS011;63842;52.144;5.360;2023-03-26T11:39:59;15.13;;;3.03;;
70796;SDS011;63842;52.144;5.360;2023-03-26T11:42:31;12.05;;;2.85;;
70796;SDS011;63842;52.144;5.360;2023-03-26T11:45:00;13.70;;;2.63;;
70796;SDS011;63842;52.144;5.360;2023-03-26T11:47:36;14.85;;;3.33;;
70796;SDS011;63842;52.144;5.360;2023-03-26T11:50:04;14.13;;;3.05;;
70796;SDS011;63842;52.144;5.360;2023-03-26T11:52:33;12.70;;;3.05;;
70796;SDS011;63842;52.144;5.360;2023-03-26T11:55:01;13.07;;;3.20;;
70796;SDS011;63842;52.144;5.360;2023-03-26T11:57:29;14.48;;;3.08;;
70796;SDS011;63842;52.144;5.360;2023-03-26T12:00:03;11.20;;;2.20;;
70796;SDS011;63842;52.144;5.360;2023-03-26T12:02:41;15.77;;;3.08;;
70796;SDS011;63842;52.144;5.360;2023-03-26T12:05:17;11.80;;;2.92;;
70796;SDS011;63842;52.144;5.360;2023-03-26T12:07:46;13.10;;;2.83;;
70796;SDS011;63842;52.144;5.360;2023-03-26T12:10:20;11.55;;;2.95;;
70796;SDS011;63842;52.144;5.360;2023-03-26T12:12:51;10.82;;;3.17;;
70796;SDS011;63842;52.144;5.360;2023-03-26T12:15:19;13.65;;;2.50;;
70796;SDS011;63842;52.144;5.360;2023-03-26T12:17:48;11.98;;;2.25;;
70796;SDS011;63842;52.144;5.360;2023-03-26T12:22:52;10.88;;;2.22;;
70796;SDS011;63842;52.144;5.360;2023-03-26T12:25:31;13.48;;;2.78;;
70796;SDS011;63842;52.144;5.360;2023-03-26T12:27:59;13.15;;;2.75;;
70796;SDS011;63842;52.144;5.360;2023-03-26T12:30:40;13.98;;;2.60;;
70796;SDS011;63842;52.144;5.360;2023-03-26T12:33:27;11.60;;;2.38;;
70796;SDS011;63842;52.144;5.360;2023-03-26T12:35:55;11.65;;;2.30;;
70796;SDS011;63842;52.144;5.360;2023-03-26T12:38:29;11.45;;;2.30;;
70796;SDS011;63842;52.144;5.360;2023-03-26T12:41:05;13.60;;;2.55;;
70796;SDS011;63842;52.144;5.360;2023-03-26T12:43:53;12.32;;;2.33;;
70796;SDS011;63842;52.144;5.360;2023-03-26T12:46:42;12.15;;;2.20;;
70796;SDS011;63842;52.144;5.360;2023-03-26T12:49:32;11.98;;;2.03;;
70796;SDS011;63842;52.144;5.360;2023-03-26T12:54:38;11.35;;;2.45;;
70796;SDS011;63842;52.144;5.360;2023-03-26T13:07:50;10.48;;;2.10;;
70796;SDS011;63842;52.144;5.360;2023-03-26T13:18:05;13.10;;;1.90;;
70796;SDS011;63842;52.144;5.360;2023-03-26T13:23:27;9.43;;;1.77;;
70796;SDS011;63842;52.144;5.360;2023-03-26T13:26:03;9.93;;;1.83;;
70796;SDS011;63842;52.144;5.360;2023-03-26T13:31:29;13.63;;;2.22;;
70796;SDS011;63842;52.144;5.360;2023-03-26T13:36:34;8.60;;;1.75;;
70796;SDS011;63842;52.144;5.360;2023-03-26T13:41:44;10.23;;;2.05;;
70796;SDS011;63842;52.144;5.360;2023-03-26T13:44:22;8.35;;;1.80;;
70796;SDS011;63842;52.144;5.360;2023-03-26T13:46:54;13.88;;;2.08;;
70796;SDS011;63842;52.144;5.360;2023-03-26T13:49:47;10.90;;;1.90;;
70796;SDS011;63842;52.144;5.360;2023-03-26T13:52:25;10.23;;;2.00;;
70796;SDS011;63842;52.144;5.360;2023-03-26T13:57:41;10.15;;;1.98;;
70796;SDS011;63842;52.144;5.360;2023-03-26T14:00:16;12.98;;;1.90;;
70796;SDS011;63842;52.144;5.360;2023-03-26T14:02:57;8.35;;;1.80;;
70796;SDS011;63842;52.144;5.360;2023-03-26T14:08:09;7.07;;;1.50;;
70796;SDS011;63842;52.144;5.360;2023-03-26T14:10:39;7.68;;;1.63;;
70796;SDS011;63842;52.144;5.360;2023-03-26T14:13:15;8.02;;;1.70;;
70796;SDS011;63842;52.144;5.360;2023-03-26T14:16:02;6.68;;;1.48;;
70796;SDS011;63842;52.144;5.360;2023-03-26T14:18:51;10.70;;;1.73;;
70796;SDS011;63842;52.144;5.360;2023-03-26T14:39:45;9.57;;;1.58;;
70796;SDS011;63842;52.144;5.360;2023-03-26T14:47:48;9.63;;;1.40;;
70796;SDS011;63842;52.144;5.360;2023-03-26T14:52:52;6.55;;;1.55;;
70796;SDS011;63842;52.144;5.360;2023-03-26T14:58:00;5.50;;;1.65;;
70796;SDS011;63842;52.144;5.360;2023-03-26T15:12:09;9.15;;;1.58;;
70796;SDS011;63842;52.144;5.360;2023-03-26T15:22:58;8.30;;;1.70;;
70796;SDS011;63842;52.144;5.360;2023-03-26T15:46:52;10.63;;;1.77;;
70796;SDS011;63842;52.144;5.360;2023-03-26T15:49:39;10.93;;;2.08;;
70796;SDS011;63842;52.144;5.360;2023-03-26T16:02:52;10.13;;;2.17;;
70796;SDS011;63842;52.144;5.360;2023-03-26T16:10:38;10.82;;;2.03;;
70796;SDS011;63842;52.144;5.360;2023-03-26T16:15:37;6.97;;;1.55;;
70796;SDS011;63842;52.144;5.360;2023-03-26T16:20:33;13.13;;;2.88;;
70796;SDS011;63842;52.144;5.360;2023-03-26T16:23:01;7.38;;;1.70;;
70796;SDS011;63842;52.144;5.360;2023-03-26T16:25:31;8.63;;;1.90;;
70796;SDS011;63842;52.144;5.360;2023-03-26T16:29:03;8.38;;;1.75;;
70796;SDS011;63842;52.144;5.360;2023-03-26T16:36:34;8.98;;;2.20;;
70796;SDS011;63842;52.144;5.360;2023-03-26T16:44:33;11.25;;;1.70;;
70796;SDS011;63842;52.144;5.360;2023-03-26T16:47:18;11.13;;;1.70;;
70796;SDS011;63842;52.144;5.360;2023-03-26T16:49:49;7.20;;;1.60;;
70796;SDS011;63842;52.144;5.360;2023-03-26T16:57:44;9.73;;;1.63;;
70796;SDS011;63842;52.144;5.360;2023-03-26T17:05:36;8.18;;;1.70;;
70796;SDS011;63842;52.144;5.360;2023-03-26T17:08:50;8.98;;;1.75;;
70796;SDS011;63842;52.144;5.360;2023-03-26T17:13:52;7.22;;;1.70;;
70796;SDS011;63842;52.144;5.360;2023-03-26T17:16:27;6.10;;;1.23;;
70796;SDS011;63842;52.144;5.360;2023-03-26T17:27:38;11.00;;;1.52;;
70796;SDS011;63842;52.144;5.360;2023-03-26T17:32:58;6.15;;;1.30;;
70796;SDS011;63842;52.144;5.360;2023-03-26T17:35:46;7.97;;;1.77;;
70796;SDS011;63842;52.144;5.360;2023-03-26T17:46:03;6.68;;;1.50;;
70796;SDS011;63842;52.144;5.360;2023-03-26T17:48:32;10.85;;;1.40;;
70796;SDS011;63842;52.144;5.360;2023-03-26T17:51:46;6.60;;;1.48;;
70796;SDS011;63842;52.144;5.360;2023-03-26T17:53:53;7.50;;;1.50;;
70796;SDS011;63842;52.144;5.360;2023-03-26T17:56:22;6.50;;;1.55;;
70796;SDS011;63842;52.144;5.360;2023-03-26T17:58:51;7.43;;;1.85;;
70796;SDS011;63842;52.144;5.360;2023-03-26T18:01:40;8.88;;;1.75;;
70796;SDS011;63842;52.144;5.360;2023-03-26T18:04:20;10.27;;;1.80;;
70796;SDS011;63842;52.144;5.360;2023-03-26T18:17:42;9.13;;;1.50;;
70796;SDS011;63842;52.144;5.360;2023-03-26T18:20:21;7.20;;;1.58;;
70796;SDS011;63842;52.144;5.360;2023-03-26T18:22:50;6.78;;;1.67;;
70796;SDS011;63842;52.144;5.360;2023-03-26T18:25:28;8.18;;;1.60;;
70796;SDS011;63842;52.144;5.360;2023-03-26T18:27:57;6.25;;;1.55;;
70796;SDS011;63842;52.144;5.360;2023-03-26T18:30:27;12.30;;;1.67;;
70796;SDS011;63842;52.144;5.360;2023-03-26T18:33:01;14.00;;;2.08;;
70796;SDS011;63842;52.144;5.360;2023-03-26T18:37:57;9.13;;;1.50;;
70796;SDS011;63842;52.144;5.360;2023-03-26T18:40:30;6.85;;;1.50;;
70796;SDS011;63842;52.144;5.360;2023-03-26T18:42:58;6.70;;;1.50;;
70796;SDS011;63842;52.144;5.360;2023-03-26T18:45:36;7.10;;;1.67;;
70796;SDS011;63842;52.144;5.360;2023-03-26T18:48:08;7.05;;;1.35;;
70796;SDS011;63842;52.144;5.360;2023-03-26T18:50:38;9.88;;;1.40;;
70796;SDS011;63842;52.144;5.360;2023-03-26T18:53:07;8.85;;;1.40;;
70796;SDS011;63842;52.144;5.360;2023-03-26T18:55:36;9.63;;;1.63;;
70796;SDS011;63842;52.144;5.360;2023-03-26T19:00:53;10.23;;;1.50;;
70796;SDS011;63842;52.144;5.360;2023-03-26T19:03:22;9.13;;;1.80;;
70796;SDS011;63842;52.144;5.360;2023-03-26T19:05:55;8.88;;;1.40;;
70796;SDS011;63842;52.144;5.360;2023-03-26T19:08:23;9.02;;;1.20;;
70796;SDS011;63842;52.144;5.360;2023-03-26T19:10:51;12.60;;;1.70;;
70796;SDS011;63842;52.144;5.360;2023-03-26T19:13:20;9.40;;;1.92;;
70796;SDS011;63842;52.144;5.360;2023-03-26T19:15:51;10.88;;;1.80;;
70796;SDS011;63842;52.144;5.360;2023-03-26T19:18:21;10.98;;;1.73;;
70796;SDS011;63842;52.144;5.360;2023-03-26T19:20:53;7.38;;;1.80;;
70796;SDS011;63842;52.144;5.360;2023-03-26T19:23:24;7.95;;;1.92;;
70796;SDS011;63842;52.144;5.360;2023-03-26T19:25:53;8.63;;;2.00;;
70796;SDS011;63842;52.144;5.360;2023-03-26T19:28:22;10.35;;;1.90;;
70796;SDS011;63842;52.144;5.360;2023-03-26T19:30:51;8.63;;;1.42;;
70796;SDS011;63842;52.144;5.360;2023-03-26T19:33:20;9.38;;;1.70;;
70796;SDS011;63842;52.144;5.360;2023-03-26T19:35:52;4.45;;;1.13;;
70796;SDS011;63842;52.144;5.360;2023-03-26T19:38:27;6.50;;;1.20;;
70796;SDS011;63842;52.144;5.360;2023-03-26T19:40:55;10.23;;;1.30;;
70796;SDS011;63842;52.144;5.360;2023-03-26T19:43:23;7.70;;;1.30;;
70796;SDS011;63842;52.144;5.360;2023-03-26T19:45:52;7.60;;;1.23;;
70796;SDS011;63842;52.144;5.360;2023-03-26T19:48:27;6.53;;;1.17;;
70796;SDS011;63842;52.144;5.360;2023-03-26T19:51:23;4.53;;;1.33;;
70796;SDS011;63842;52.144;5.360;2023-03-26T19:53:51;7.40;;;1.30;;
70796;SDS011;63842;52.144;5.360;2023-03-26T19:56:21;7.18;;;1.33;;
70796;SDS011;63842;52.144;5.360;2023-03-26T19:58:49;5.75;;;1.02;;
70796;SDS011;63842;52.144;5.360;2023-03-26T20:01:17;8.70;;;1.55;;
70796;SDS011;63842;52.144;5.360;2023-03-26T20:03:47;9.40;;;1.50;;
70796;SDS011;63842;52.144;5.360;2023-03-26T20:06:15;5.43;;;1.10;;
70796;SDS011;63842;52.144;5.360;2023-03-26T20:08:44;5.78;;;1.08;;
70796;SDS011;63842;52.144;5.360;2023-03-26T20:11:15;6.72;;;1.15;;
70796;SDS011;63842;52.144;5.360;2023-03-26T20:13:44;6.85;;;1.10;;
70796;SDS011;63842;52.144;5.360;2023-03-26T20:16:46;6.88;;;1.42;;
70796;SDS011;63842;52.144;5.360;2023-03-26T20:19:09;6.18;;;1.10;;
70796;SDS011;63842;52.144;5.360;2023-03-26T20:21:36;8.38;;;1.48;;
70796;SDS011;63842;52.144;5.360;2023-03-26T20:24:08;5.68;;;1.40;;
70796;SDS011;63842;52.144;5.360;2023-03-26T20:26:36;9.15;;;1.40;;
70796;SDS011;63842;52.144;5.360;2023-03-26T20:29:03;7.50;;;1.23;;
70796;SDS011;63842;52.144;5.360;2023-03-26T20:31:31;10.18;;;1.92;;
70796;SDS011;63842;52.144;5.360;2023-03-26T20:33:59;8.68;;;1.20;;
70796;SDS011;63842;52.144;5.360;2023-03-26T20:36:26;7.13;;;1.30;;
70796;SDS011;63842;52.144;5.360;2023-03-26T20:39:00;6.80;;;1.27;;
70796;SDS011;63842;52.144;5.360;2023-03-26T20:41:31;5.30;;;1.00;;
70796;SDS011;63842;52.144;5.360;2023-03-26T20:43:59;6.35;;;1.67;;
70796;SDS011;63842;52.144;5.360;2023-03-26T20:46:28;6.97;;;1.10;;
70796;SDS011;63842;52.144;5.360;2023-03-26T20:48:57;9.90;;;1.23;;
70796;SDS011;63842;52.144;5.360;2023-03-26T20:51:25;6.22;;;1.20;;
70796;SDS011;63842;52.144;5.360;2023-03-26T20:53:55;6.32;;;1.20;;
70796;SDS011;63842;52.144;5.360;2023-03-26T20:56:23;8.43;;;1.15;;
70796;SDS011;63842;52.144;5.360;2023-03-26T20:58:50;5.65;;;1.02;;
70796;SDS011;63842;52.144;5.360;2023-03-26T21:01:36;8.05;;;1.20;;
70796;SDS011;63842;52.144;5.360;2023-03-26T21:04:04;5.82;;;1.23;;
70796;SDS011;63842;52.144;5.360;2023-03-26T21:06:32;7.63;;;1.35;;